^^
Your Local Weather - Clay, NY Station Historical Data
Daily Summary for November 11, 2017 Units:  English    Metric   Both
« Previous Day
Next Day »
Daily Weekly Monthly Yearly Custom
  High: Low: Average:
Temperature: 30.4 °F 14.1 °F 23.9 °F
Dew Point: 18.3 °F 9.1 °F 13 °F
Humidity: 85% 44% 64%
Wind Speed: 3.0mph 0.0mph 0.8mph
Wind Gust: 6.0mph - -
Wind- - ESE
Pressure: 30.64 in 30.39 in -
Precipitation: 0.00 in    
Historical Graphs
 
 
Tabular Data for November 11, 2017
Time Temperature Dew Point Pressure Wind Wind Speed Wind Gust Humidity Rainfall Rate (Hourly) solar
00:00 23.6 °F 17.7 °F 30.53 in NW 2.0 mph 2.0 mph 78% 0.00 in 0 W/m2
00:06 23.6 °F 17.7 °F 30.53 in NW 1.0 mph 2.0 mph 78% 0.00 in 0 W/m2
00:12 23.5 °F 17.9 °F 30.53 in WNW 2.0 mph 2.0 mph 79% 0.00 in 0 W/m2
00:18 23.3 °F 18.0 °F 30.53 in WNW 2.0 mph 2.0 mph 80% 0.00 in 0 W/m2
00:24 23.3 °F 18.0 °F 30.54 in WNW 2.0 mph 4.0 mph 80% 0.00 in 0 W/m2
00:30 23.3 °F 18.0 °F 30.54 in NW 2.0 mph 2.0 mph 80% 0.00 in 0 W/m2
00:36 23.3 °F 18.3 °F 30.54 in North 1.0 mph 5.0 mph 81% 0.00 in 0 W/m2
00:42 23.0 °F 17.7 °F 30.55 in NE 2.0 mph 2.0 mph 80% 0.00 in 0 W/m2
00:48 22.7 °F 17.5 °F 30.55 in NNW 1.0 mph 2.0 mph 80% 0.00 in 0 W/m2
00:54 22.4 °F 17.2 °F 30.55 in ENE 2.0 mph 4.0 mph 80% 0.00 in 0 W/m2
01:00 22.2 °F 17.0 °F 30.55 in NNE 3.0 mph 3.0 mph 80% 0.00 in 0 W/m2
01:06 21.9 °F 17.0 °F 30.55 in North 3.0 mph 3.0 mph 81% 0.00 in 0 W/m2
01:12 21.7 °F 17.1 °F 30.55 in North 2.0 mph 2.0 mph 82% 0.00 in 0 W/m2
01:18 21.6 °F 17.0 °F 30.55 in North 1.0 mph 2.0 mph 82% 0.00 in 0 W/m2
01:24 21.5 °F 16.9 °F 30.55 in North 1.0 mph 3.0 mph 82% 0.00 in 0 W/m2
01:30 21.5 °F 17.1 °F 30.55 in North 1.0 mph 3.0 mph 83% 0.00 in 0 W/m2
01:36 21.4 °F 16.8 °F 30.55 in North 1.0 mph 3.0 mph 82% 0.00 in 0 W/m2
01:42 21.3 °F 16.4 °F 30.55 in North 1.0 mph 2.0 mph 81% 0.00 in 0 W/m2
01:48 21.2 °F 16.0 °F 30.55 in North 1.0 mph 2.0 mph 80% 0.00 in 0 W/m2
01:54 21.1 °F 15.6 °F 30.55 in North 1.0 mph 2.0 mph 79% 0.00 in 0 W/m2
02:00 21.0 °F 15.2 °F 30.55 in Calm     78% 0.00 in 0 W/m2
02:06 20.8 °F 14.7 °F 30.56 in Calm   2.0 mph 77% 0.00 in 0 W/m2
02:12 20.7 °F 14.3 °F 30.56 in Calm     76% 0.00 in 0 W/m2
02:18 20.6 °F 13.6 °F 30.56 in Calm     74% 0.00 in 0 W/m2
02:24 20.5 °F 13.5 °F 30.57 in Calm   1.0 mph 74% 0.00 in 0 W/m2
02:30 20.5 °F 13.2 °F 30.57 in Calm   1.0 mph 73% 0.00 in 0 W/m2
02:36 20.6 °F 13.0 °F 30.58 in Calm   1.0 mph 72% 0.00 in 0 W/m2
02:42 20.6 °F 13.3 °F 30.58 in Calm     73% 0.00 in 0 W/m2
02:48 20.3 °F 12.7 °F 30.58 in Calm     72% 0.00 in 0 W/m2
02:54 20.0 °F 12.7 °F 30.58 in Calm     73% 0.00 in 0 W/m2
03:00 19.7 °F 12.4 °F 30.58 in Calm     73% 0.00 in 0 W/m2
03:06 19.6 °F 12.3 °F 30.58 in North 1.0 mph 1.0 mph 73% 0.00 in 0 W/m2
03:12 19.4 °F 12.2 °F 30.58 in North 1.0 mph 1.0 mph 73% 0.00 in 0 W/m2
03:18 19.1 °F 11.9 °F 30.58 in Calm   1.0 mph 73% 0.00 in 0 W/m2
03:24 18.9 °F 12.0 °F 30.58 in Calm     74% 0.00 in 0 W/m2
03:30 18.4 °F 11.5 °F 30.58 in Calm     74% 0.00 in 0 W/m2
03:36 18.1 °F 11.5 °F 30.58 in Calm     75% 0.00 in 0 W/m2
03:42 17.7 °F 11.7 °F 30.58 in Calm     77% 0.00 in 0 W/m2
03:48 17.3 °F 11.3 °F 30.59 in Calm     77% 0.00 in 0 W/m2
03:54 16.9 °F 11.2 °F 30.59 in Calm     78% 0.00 in 0 W/m2
04:00 16.8 °F 11.4 °F 30.59 in Calm     79% 0.00 in 0 W/m2
04:06 16.9 °F 11.5 °F 30.59 in Calm     79% 0.00 in 0 W/m2
04:12 16.8 °F 11.4 °F 30.59 in Calm     79% 0.00 in 0 W/m2
04:18 16.5 °F 11.1 °F 30.59 in Calm     79% 0.00 in 0 W/m2
04:24 16.3 °F 10.9 °F 30.59 in Calm     79% 0.00 in 0 W/m2
04:30 16.0 °F 10.9 °F 30.59 in Calm     80% 0.00 in 0 W/m2
04:36 15.7 °F 10.9 °F 30.59 in Calm     81% 0.00 in 0 W/m2
04:42 15.5 °F 10.7 °F 30.60 in Calm     81% 0.00 in 0 W/m2
04:48 15.4 °F 10.9 °F 30.60 in Calm     82% 0.00 in 0 W/m2
04:54 15.3 °F 10.8 °F 30.60 in Calm     82% 0.00 in 0 W/m2
05:00 15.2 °F 11.0 °F 30.60 in Calm     83% 0.00 in 0 W/m2
05:06 15.4 °F 11.2 °F 30.60 in Calm     83% 0.00 in 0 W/m2
05:12 15.8 °F 11.8 °F 30.60 in Calm     84% 0.00 in 0 W/m2
05:18 16.0 °F 11.7 °F 30.60 in Calm     83% 0.00 in 0 W/m2
05:24 16.2 °F 11.9 °F 30.60 in Calm     83% 0.00 in 0 W/m2
05:30 16.4 °F 12.1 °F 30.60 in Calm     83% 0.00 in 0 W/m2
05:36 16.5 °F 12.0 °F 30.60 in Calm     82% 0.00 in 0 W/m2
05:42 16.5 °F 11.7 °F 30.60 in Calm     81% 0.00 in 0 W/m2
05:48 16.5 °F 11.4 °F 30.60 in Calm     80% 0.00 in 0 W/m2
05:54 16.4 °F 11.3 °F 30.60 in Calm     80% 0.00 in 0 W/m2
06:00 16.4 °F 11.3 °F 30.61 in Calm     80% 0.00 in 0 W/m2
06:06 16.4 °F 11.3 °F 30.61 in Calm     80% 0.00 in 0 W/m2
06:12 16.3 °F 11.2 °F 30.61 in Calm     80% 0.00 in 0 W/m2
06:18 16.0 °F 11.2 °F 30.61 in Calm     81% 0.00 in 0 W/m2
06:24 16.1 °F 11.3 °F 30.61 in Calm   1.0 mph 81% 0.00 in 0 W/m2
06:30 16.0 °F 10.9 °F 30.61 in Calm     80% 0.00 in 0 W/m2
06:36 15.9 °F 10.8 °F 30.61 in Calm     80% 0.00 in 0 W/m2
06:42 15.8 °F 10.7 °F 30.61 in Calm     80% 0.00 in 0 W/m2
06:48 15.6 °F 10.5 °F 30.61 in Calm     80% 0.00 in 0 W/m2
06:54 15.4 °F 10.6 °F 30.61 in Calm     81% 0.00 in 0 W/m2
07:00 15.1 °F 10.3 °F 30.62 in Calm     81% 0.00 in 7 W/m2
07:06 14.9 °F 10.4 °F 30.62 in Calm     82% 0.00 in 9 W/m2
07:12 14.7 °F 10.2 °F 30.62 in Calm     82% 0.00 in 12 W/m2
07:18 14.5 °F 10.3 °F 30.63 in Calm     83% 0.00 in 16 W/m2
07:24 14.3 °F 10.1 °F 30.63 in Calm     83% 0.00 in 18 W/m2
07:30 14.2 °F 10.0 °F 30.63 in Calm     83% 0.00 in 21 W/m2
07:36 14.1 °F 10.2 °F 30.63 in Calm     84% 0.00 in 23 W/m2
07:42 14.3 °F 10.4 °F 30.63 in Calm     84% 0.00 in 40 W/m2
07:48 14.5 °F 10.5 °F 30.64 in Calm     84% 0.00 in 54 W/m2
07:54 15.2 °F 11.5 °F 30.64 in Calm     85% 0.00 in 74 W/m2
08:00 16.1 °F 12.4 °F 30.64 in Calm     85% 0.00 in 146 W/m2
08:06 17.0 °F 12.7 °F 30.64 in Calm     83% 0.00 in 167 W/m2
08:14 19.6 °F 13.6 °F 30.64 in Calm   1.0 mph 77% 0.00 in 220 W/m2
08:20 20.6 °F 13.6 °F 30.64 in Calm     74% 0.00 in 232 W/m2
08:26 20.3 °F 12.7 °F 30.64 in Calm   3.0 mph 72% 0.00 in 248 W/m2
08:32 20.9 °F 12.6 °F 30.64 in Calm   1.0 mph 70% 0.00 in 264 W/m2
08:38 20.4 °F 12.2 °F 30.64 in ENE 1.0 mph 2.0 mph 70% 0.00 in 279 W/m2
08:44 20.5 °F 11.9 °F 30.64 in ENE 2.0 mph 3.0 mph 69% 0.00 in 294 W/m2
08:50 21.5 °F 12.9 °F 30.64 in ESE 1.0 mph 4.0 mph 69% 0.00 in 301 W/m2
08:56 21.5 °F 12.9 °F 30.64 in North 1.0 mph 4.0 mph 69% 0.00 in 311 W/m2
09:02 21.8 °F 12.5 °F 30.64 in NE 2.0 mph 3.0 mph 67% 0.00 in 329 W/m2
09:08 22.1 °F 12.5 °F 30.64 in NE 2.0 mph 3.0 mph 66% 0.00 in 339 W/m2
09:14 22.2 °F 12.6 °F 30.64 in NE 1.0 mph 3.0 mph 66% 0.00 in 352 W/m2
09:20 21.7 °F 12.4 °F 30.64 in NE 2.0 mph 2.0 mph 67% 0.00 in 367 W/m2
09:26 23.2 °F 12.8 °F 30.64 in Calm   2.0 mph 64% 0.00 in 383 W/m2
09:32 22.6 °F 12.2 °F 30.64 in East 1.0 mph 1.0 mph 64% 0.00 in 394 W/m2
09:38 22.5 °F 12.1 °F 30.64 in East 1.0 mph 2.0 mph 64% 0.00 in 406 W/m2
09:44 23.7 °F 12.9 °F 30.64 in East 1.0 mph 2.0 mph 63% 0.00 in 418 W/m2
09:50 24.1 °F 12.6 °F 30.64 in Calm     61% 0.00 in 408 W/m2
09:56 24.7 °F 13.5 °F 30.64 in North 1.0 mph 4.0 mph 62% 0.00 in 392 W/m2
10:02 23.9 °F 11.3 °F 30.64 in North 1.0 mph 2.0 mph 58% 0.00 in 424 W/m2
10:08 24.1 °F 12.6 °F 30.64 in North 1.0 mph 4.0 mph 61% 0.00 in 461 W/m2
10:14 25.2 °F 13.2 °F 30.64 in North 1.0 mph 2.0 mph 60% 0.00 in 448 W/m2
10:20 24.1 °F 11.8 °F 30.64 in East 1.0 mph 1.0 mph 59% 0.00 in 441 W/m2
10:26 25.1 °F 13.9 °F 30.64 in NE 1.0 mph 2.0 mph 62% 0.00 in 475 W/m2
10:32 25.8 °F 14.2 °F 30.64 in NE 1.0 mph 2.0 mph 61% 0.00 in 482 W/m2
10:38 24.7 °F 12.4 °F 30.64 in NE 1.0 mph 3.0 mph 59% 0.00 in 480 W/m2
10:44 24.4 °F 12.5 °F 30.64 in NE 1.0 mph 3.0 mph 60% 0.00 in 487 W/m2
10:50 24.4 °F 13.2 °F 30.63 in NE 1.0 mph 2.0 mph 62% 0.00 in 503 W/m2
10:56 25.1 °F 13.5 °F 30.63 in NE 1.0 mph 2.0 mph 61% 0.00 in 482 W/m2
11:02 25.4 °F 14.5 °F 30.63 in SSW 1.0 mph 2.0 mph 63% 0.00 in 494 W/m2
11:08 26.2 °F 14.9 °F 30.63 in SSW 1.0 mph 2.0 mph 62% 0.00 in 513 W/m2
11:14 25.8 °F 13.0 °F 30.63 in SSW 1.0 mph 1.0 mph 58% 0.00 in 517 W/m2
11:20 26.2 °F 13.4 °F 30.62 in SSW 1.0 mph 1.0 mph 58% 0.00 in 522 W/m2
11:26 26.5 °F 14.5 °F 30.61 in SE 2.0 mph 3.0 mph 60% 0.00 in 504 W/m2
11:50 26.7 °F 13.1 °F 30.59 in SE 2.0 mph 2.0 mph 56% 0.00 in 468 W/m2
11:56 27.1 °F 12.6 °F 30.59 in SE 1.0 mph 2.0 mph 54% 0.00 in 478 W/m2
12:02 28.4 °F 16.3 °F 30.58 in Calm   1.0 mph 60% 0.00 in 512 W/m2
12:08 28.9 °F 14.3 °F 30.58 in South 1.0 mph 3.0 mph 54% 0.00 in 496 W/m2
12:14 27.8 °F 13.3 °F 30.58 in South 2.0 mph 2.0 mph 54% 0.00 in 506 W/m2
12:20 27.3 °F 11.5 °F 30.57 in ENE 2.0 mph 2.0 mph 51% 0.00 in 503 W/m2
12:26 27.9 °F 12.5 °F 30.56 in NNE 3.0 mph 5.0 mph 52% 0.00 in 492 W/m2
12:32 28.0 °F 13.1 °F 30.56 in ENE 3.0 mph 4.0 mph 53% 0.00 in 497 W/m2
12:38 28.6 °F 14.0 °F 30.55 in SE 2.0 mph 4.0 mph 54% 0.00 in 501 W/m2
12:44 28.9 °F 13.5 °F 30.55 in South 1.0 mph 2.0 mph 52% 0.00 in 490 W/m2
12:50 28.3 °F 13.3 °F 30.55 in SE 1.0 mph 1.0 mph 53% 0.00 in 478 W/m2
12:56 28.6 °F 13.2 °F 30.55 in SE 2.0 mph 3.0 mph 52% 0.00 in 492 W/m2
13:02 29.0 °F 13.1 °F 30.54 in SSE 1.0 mph 2.0 mph 51% 0.00 in 473 W/m2
13:08 29.7 °F 15.5 °F 30.53 in SE 1.0 mph 4.0 mph 55% 0.00 in 445 W/m2
13:14 29.4 °F 13.0 °F 30.53 in SSE 2.0 mph 3.0 mph 50% 0.00 in 459 W/m2
13:20 30.1 °F 13.7 °F 30.53 in Calm   1.0 mph 50% 0.00 in 443 W/m2
13:26 30.0 °F 14.9 °F 30.53 in NE 2.0 mph 4.0 mph 53% 0.00 in 446 W/m2
13:32 30.1 °F 14.6 °F 30.52 in NE 3.0 mph 4.0 mph 52% 0.00 in 408 W/m2
13:38 29.5 °F 16.5 °F 30.52 in ENE 3.0 mph 4.0 mph 58% 0.00 in 441 W/m2
13:44 29.3 °F 15.9 °F 30.52 in ENE 3.0 mph 4.0 mph 57% 0.00 in 413 W/m2
13:50 29.7 °F 16.7 °F 30.52 in ENE 2.0 mph 2.0 mph 58% 0.00 in 350 W/m2
13:56 29.9 °F 13.9 °F 30.52 in NNE 2.0 mph 3.0 mph 51% 0.00 in 371 W/m2
14:02 29.7 °F 13.8 °F 30.52 in North 3.0 mph 4.0 mph 51% 0.00 in 355 W/m2
14:08 29.7 °F 12.8 °F 30.52 in NNE 2.0 mph 4.0 mph 49% 0.00 in 287 W/m2
14:14 29.4 °F 12.1 °F 30.52 in NE 2.0 mph 4.0 mph 48% 0.00 in 315 W/m2
14:20 28.7 °F 11.5 °F 30.52 in ENE 3.0 mph 3.0 mph 48% 0.00 in 325 W/m2
14:26 29.1 °F 12.3 °F 30.52 in NE 2.0 mph 4.0 mph 49% 0.00 in 304 W/m2
14:32 29.2 °F 11.4 °F 30.52 in NNE 3.0 mph 4.0 mph 47% 0.00 in 336 W/m2
14:38 30.0 °F 12.7 °F 30.52 in NNW 3.0 mph 4.0 mph 48% 0.00 in 294 W/m2
14:44 30.4 °F 12.5 °F 30.52 in North 2.0 mph 3.0 mph 47% 0.00 in 288 W/m2
14:50 30.1 °F 12.3 °F 30.50 in ENE 2.0 mph 2.0 mph 47% 0.00 in 244 W/m2
14:56 29.1 °F 11.8 °F 30.50 in East 2.0 mph 6.0 mph 48% 0.00 in 188 W/m2
15:02 28.8 °F 12.5 °F 30.50 in NNE 3.0 mph 6.0 mph 50% 0.00 in 171 W/m2
15:08 29.1 °F 13.2 °F 30.50 in North 3.0 mph 6.0 mph 51% 0.00 in 209 W/m2
15:14 29.4 °F 12.6 °F 30.50 in NE 3.0 mph 3.0 mph 49% 0.00 in 250 W/m2
15:20 29.4 °F 13.0 °F 30.50 in NE 2.0 mph 2.0 mph 50% 0.00 in 185 W/m2
15:26 29.1 °F 12.8 °F 30.51 in East 2.0 mph 3.0 mph 50% 0.00 in 211 W/m2
15:32 29.7 °F 12.4 °F 30.51 in East 1.0 mph 3.0 mph 48% 0.00 in 95 W/m2
15:38 29.3 °F 11.5 °F 30.50 in NE 2.0 mph 3.0 mph 47% 0.00 in 95 W/m2
15:44 28.8 °F 9.6 °F 30.50 in NE 2.0 mph 2.0 mph 44% 0.00 in 47 W/m2
15:50 28.7 °F 10.0 °F 30.50 in NE 1.0 mph 1.0 mph 45% 0.00 in 44 W/m2
15:56 28.7 °F 9.5 °F 30.50 in NE 1.0 mph 1.0 mph 44% 0.00 in 37 W/m2
16:02 28.5 °F 9.8 °F 30.50 in SE 2.0 mph 2.0 mph 45% 0.00 in 37 W/m2
16:08 28.3 °F 9.1 °F 30.50 in ESE 2.0 mph 2.0 mph 44% 0.00 in 35 W/m2
16:14 28.2 °F 10.0 °F 30.50 in ESE 1.0 mph 2.0 mph 46% 0.00 in 30 W/m2
16:20 28.1 °F 10.9 °F 30.51 in ESE 1.0 mph 1.0 mph 48% 0.00 in 23 W/m2
16:26 28.0 °F 11.3 °F 30.50 in ESE 1.0 mph 2.0 mph 49% 0.00 in 18 W/m2
16:32 27.9 °F 12.1 °F 30.50 in NE 1.0 mph 2.0 mph 51% 0.00 in 12 W/m2
16:38 27.8 °F 12.0 °F 30.50 in NE 1.0 mph 2.0 mph 51% 0.00 in 9 W/m2
16:44 27.8 °F 12.4 °F 30.50 in NE 1.0 mph 1.0 mph 52% 0.00 in 0 W/m2
16:50 27.6 °F 13.5 °F 30.50 in NE 1.0 mph 1.0 mph 55% 0.00 in 0 W/m2
16:56 27.4 °F 12.5 °F 30.50 in Calm   3.0 mph 53% 0.00 in 0 W/m2
17:02 27.3 °F 12.8 °F 30.49 in Calm     54% 0.00 in 0 W/m2
17:08 27.0 °F 12.1 °F 30.49 in Calm   1.0 mph 53% 0.00 in 0 W/m2
17:14 26.8 °F 11.9 °F 30.48 in Calm   1.0 mph 53% 0.00 in 0 W/m2
17:20 26.8 °F 12.4 °F 30.48 in Calm     54% 0.00 in 0 W/m2
17:26 26.8 °F 12.4 °F 30.49 in Calm   2.0 mph 54% 0.00 in 0 W/m2
17:32 26.9 °F 12.5 °F 30.49 in Calm     54% 0.00 in 0 W/m2
17:38 26.9 °F 13.3 °F 30.49 in Calm   1.0 mph 56% 0.00 in 0 W/m2
17:44 26.9 °F 12.9 °F 30.49 in Calm     55% 0.00 in 0 W/m2
17:50 26.8 °F 13.2 °F 30.49 in Calm     56% 0.00 in 0 W/m2
17:56 26.6 °F 13.4 °F 30.48 in Calm     57% 0.00 in 0 W/m2
18:02 26.6 °F 13.4 °F 30.47 in Calm     57% 0.00 in 0 W/m2
18:08 26.5 °F 13.7 °F 30.47 in Calm     58% 0.00 in 0 W/m2
18:14 26.5 °F 13.3 °F 30.47 in Calm     57% 0.00 in 0 W/m2
18:20 26.7 °F 13.5 °F 30.47 in SSE 1.0 mph 1.0 mph 57% 0.00 in 0 W/m2
18:26 26.8 °F 13.2 °F 30.47 in Calm   1.0 mph 56% 0.00 in 0 W/m2
18:32 26.9 °F 13.7 °F 30.47 in Calm   2.0 mph 57% 0.00 in 0 W/m2
18:38 26.9 °F 13.3 °F 30.47 in SE 1.0 mph 2.0 mph 56% 0.00 in 0 W/m2
18:44 27.1 °F 13.1 °F 30.46 in SE 1.0 mph 1.0 mph 55% 0.00 in 0 W/m2
18:50 27.0 °F 13.0 °F 30.47 in Calm   1.0 mph 55% 0.00 in 0 W/m2
18:56 27.0 °F 12.5 °F 30.47 in SE 1.0 mph 2.0 mph 54% 0.00 in 0 W/m2
19:02 27.0 °F 13.0 °F 30.47 in SE 1.0 mph 1.0 mph 55% 0.00 in 0 W/m2
19:08 26.9 °F 12.9 °F 30.47 in Calm   1.0 mph 55% 0.00 in 0 W/m2
19:14 26.8 °F 12.8 °F 30.47 in Calm     55% 0.00 in 0 W/m2
19:18 26.8 °F 12.8 °F 30.47 in Calm     55% 0.00 in 0 W/m2
19:24 26.7 °F 12.3 °F 30.47 in Calm   1.0 mph 54% 0.00 in 0 W/m2
19:30 26.7 °F 12.3 °F 30.47 in Calm   1.0 mph 54% 0.00 in 0 W/m2
19:36 26.6 °F 13.0 °F 30.47 in Calm   1.0 mph 56% 0.00 in 0 W/m2
19:42 26.5 °F 13.7 °F 30.46 in Calm     58% 0.00 in 0 W/m2
19:48 26.4 °F 13.6 °F 30.46 in Calm   1.0 mph 58% 0.00 in 0 W/m2
19:54 26.4 °F 13.6 °F 30.46 in Calm     58% 0.00 in 0 W/m2
20:00 26.4 °F 13.2 °F 30.46 in Calm     57% 0.00 in 0 W/m2
20:06 26.5 °F 13.7 °F 30.46 in Calm   1.0 mph 58% 0.00 in 0 W/m2
20:12 26.6 °F 13.4 °F 30.46 in Calm   3.0 mph 57% 0.00 in 0 W/m2
20:18 26.7 °F 13.9 °F 30.45 in Calm   3.0 mph 58% 0.00 in 0 W/m2
20:24 26.7 °F 13.5 °F 30.45 in Calm   1.0 mph 57% 0.00 in 0 W/m2
20:30 26.8 °F 13.6 °F 30.45 in Calm     57% 0.00 in 0 W/m2
20:36 26.8 °F 14.0 °F 30.45 in Calm   1.0 mph 58% 0.00 in 0 W/m2
20:42 26.7 °F 13.5 °F 30.44 in Calm     57% 0.00 in 0 W/m2
20:48 26.8 °F 13.6 °F 30.44 in SE 1.0 mph 2.0 mph 57% 0.00 in 0 W/m2
20:54 26.9 °F 13.7 °F 30.44 in SE 1.0 mph 1.0 mph 57% 0.00 in 0 W/m2
21:00 26.9 °F 13.7 °F 30.44 in ENE 1.0 mph 1.0 mph 57% 0.00 in 0 W/m2
21:06 27.1 °F 13.5 °F 30.44 in ENE 2.0 mph 3.0 mph 56% 0.00 in 0 W/m2
21:12 27.1 °F 13.5 °F 30.44 in ENE 2.0 mph 2.0 mph 56% 0.00 in 0 W/m2
21:18 27.1 °F 13.5 °F 30.44 in ENE 1.0 mph 2.0 mph 56% 0.00 in 0 W/m2
21:24 27.1 °F 13.1 °F 30.44 in East 1.0 mph 2.0 mph 55% 0.00 in 0 W/m2
21:30 27.2 °F 13.1 °F 30.44 in East 1.0 mph 1.0 mph 55% 0.00 in 0 W/m2
21:36 27.1 °F 13.1 °F 30.44 in Calm   1.0 mph 55% 0.00 in 0 W/m2
21:42 27.2 °F 13.1 °F 30.44 in East 1.0 mph 1.0 mph 55% 0.00 in 0 W/m2
21:48 27.1 °F 13.5 °F 30.44 in Calm   1.0 mph 56% 0.00 in 0 W/m2
21:54 27.1 °F 13.1 °F 30.44 in Calm   1.0 mph 55% 0.00 in 0 W/m2
22:00 27.1 °F 13.5 °F 30.43 in Calm     56% 0.00 in 0 W/m2
22:06 27.1 °F 13.5 °F 30.43 in Calm   1.0 mph 56% 0.00 in 0 W/m2
22:14 27.2 °F 13.6 °F 30.43 in East 1.0 mph 1.0 mph 56% 0.00 in 0 W/m2
22:20 27.3 °F 13.2 °F 30.43 in East 1.0 mph 3.0 mph 55% 0.00 in 0 W/m2
22:26 27.3 °F 13.7 °F 30.43 in East 1.0 mph 3.0 mph 56% 0.00 in 0 W/m2
22:32 27.3 °F 13.7 °F 30.42 in Calm   1.0 mph 56% 0.00 in 0 W/m2
22:38 27.2 °F 14.0 °F 30.42 in Calm   2.0 mph 57% 0.00 in 0 W/m2
22:44 27.3 °F 13.7 °F 30.42 in Calm   2.0 mph 56% 0.00 in 0 W/m2
22:50 27.3 °F 13.7 °F 30.42 in East 1.0 mph 1.0 mph 56% 0.00 in 0 W/m2
22:52 27.4 °F 13.7 °F 30.42 in East 1.0 mph 2.0 mph 56% 0.00 in 0 W/m2
22:54 27.4 °F 13.7 °F 30.42 in East 1.0 mph 2.0 mph 56% 0.00 in 0 W/m2
23:02 27.4 °F 13.7 °F 30.41 in East 1.0 mph 1.0 mph 56% 0.00 in 0 W/m2
23:08 27.4 °F 13.7 °F 30.41 in East 1.0 mph 2.0 mph 56% 0.00 in 0 W/m2
23:14 27.5 °F 13.8 °F 30.41 in East 1.0 mph 5.0 mph 56% 0.00 in 0 W/m2
23:20 27.5 °F 14.2 °F 30.40 in East 1.0 mph 2.0 mph 57% 0.00 in 0 W/m2
23:26 27.6 °F 13.5 °F 30.40 in East 2.0 mph 2.0 mph 55% 0.00 in 0 W/m2
23:32 27.6 °F 13.1 °F 30.40 in SE 2.0 mph 2.0 mph 54% 0.00 in 0 W/m2
23:38 27.6 °F 13.1 °F 30.39 in ESE 2.0 mph 3.0 mph 54% 0.00 in 0 W/m2
23:44 27.6 °F 12.7 °F 30.39 in East 1.0 mph 2.0 mph 53% 0.00 in 0 W/m2
23:50 27.7 °F 12.8 °F 30.40 in East 1.0 mph 1.0 mph 53% 0.00 in 0 W/m2
23:56 27.6 °F 13.1 °F 30.41 in East 1.0 mph 3.0 mph 54% 0.00 in 0 W/m2
Country Meadow, Clay, NY, USA
Compliments of Weather Underground - 2 mb